Airport View

Enter AWOS ICAO identifier for current METAR.

ex. KFNL

KRQO 191215Z AUTO 33009KT 7SM CLR 12/10 A2989 RMK AO2 T01210103

19 May 2019 12:43

Frequency: 118.475

Phone: 405-262-0087

Other Area AWOS: KRCE - KHSD - KPWA - KOKC

TAF KOKC 191123Z 1912/2012 33010KT P6SM FEW250 FM192100 10008KT P6SM FEW050